Ely Municipal Airport
KELO : rendu visible

Aérodrome :











RETROUVEZ-NOUS SUR...

 
LOGIN :

S'inscrire | Disclaimer

   EN    FR    IT 

 









Légende :    VFR   VFR Marginal   IFR   IFR Intensif   IFR Très Intensif
Visi : 
Plafond : 
>= 8 km
>= 3000ft
5 à 8 km
1000 à 3000 ft
1500m à 5 km
500 à 1000 ft
800 à 1500m
200 à 500 ft
< 800m
< 200 ft
Symboles :   Orages  Brouillard  Fortes neiges  Fortes précipitations  Vent > 20 kt






- Altitude de l'aérodrome : 1456 ft


KELO - Ely Municipal

DERNIER METAR :
  • 080535Z AUTO 00000KT 10SM CLR 00/M03 A2969 RMK AO2

METARs EXPIRÉS :
  • 080515Z AUTO 00000KT 10SM CLR 00/M03 A2969 RMK AO2
  • 080456Z AUTO 00000KT 10SM CLR 02/M03 A2970 RMK AO2
  • 080436Z AUTO 27003KT 10SM SCT100 03/M03 A2970 RMK AO2
  • 080415Z AUTO 31003KT 10SM SCT100 03/M03 A2969 RMK AO2
  • 080355Z AUTO 27004KT 10SM BKN100 03/M03 A2970 RMK AO2
  • 080335Z AUTO 27003KT 10SM SCT110 04/M03 A2970 RMK AO2
  • 080315Z AUTO 27004KT 10SM SCT120 05/M03 A2970 RMK AO2
  • 080255Z AUTO 28005KT 10SM SCT120 05/M03 A2969 RMK AO2

TAF N/A



MET'MAP, la Météo Aéronautique d'un coup d'oeil ! - Copyright ORBIFLY Décembre 2007 - Disclaimer

ORBIFLY MET'MAP TEAM :

Programmation & Développement : Alexandra Zaïnal
Sur une idée originale de : Baudouin d'Aumeries
Assistance à la programmation : Marc-Olivier Méhu
Soutien technique & logistique : Manuel Goepfert

Contact : metmap@orbifly.com




SOURCES & CREDITS :

   NOAA       Earth
Advisory